Time;durP1;ratioP1;P1;durP2;ratioP2;P2;SDS_P1;SDS_P2;PMS_P1;PMS_P2;Temp;Humidity;BMP_temperature;BMP_pressure;BME280_temperature;BME280_humidity;BME280_pressure;Samples;Min_cycle;Max_cycle;Signal;HPM_P1;HPM_P2
2022/06/25 00:01:30;;;;;;;5.50;1.02;;;26.60;91.30;;;;;;5063548;28;20037;-52
2022/06/25 00:03:56;;;;;;;2.13;0.70;;;26.50;91.20;;;;;;5063093;28;20028;-56
2022/06/25 00:06:23;;;;;;;4.00;0.60;;;26.50;91.10;;;;;;5062498;28;20084;-51
2022/06/25 00:08:50;;;;;;;7.15;0.70;;;26.50;91.10;;;;;;5063869;28;20040;-57
2022/06/25 00:14:10;;;;;;;2.13;0.45;;;26.50;91.20;;;;;;5063941;28;20108;-59
2022/06/25 00:16:37;;;;;;;3.22;0.50;;;26.50;91.20;;;;;;5063505;28;20021;-54
2022/06/25 00:19:04;;;;;;;4.53;0.50;;;26.40;90.80;;;;;;5082539;28;20020;-53
2022/06/25 00:21:31;;;;;;;2.35;0.50;;;26.40;90.80;;;;;;5067510;28;20321;-52
2022/06/25 00:23:58;;;;;;;1.48;0.28;;;26.40;90.70;;;;;;5067829;28;20040;-52
2022/06/25 00:26:24;;;;;;;4.57;0.40;;;26.40;90.70;;;;;;5066800;28;20024;-55
2022/06/25 00:28:51;;;;;;;3.67;0.50;;;26.40;90.80;;;;;;5067600;28;20028;-53
2022/06/25 00:31:17;;;;;;;5.15;0.43;;;26.40;90.70;;;;;;5067206;28;20096;-52
2022/06/25 00:33:44;;;;;;;1.73;0.40;;;26.40;90.80;;;;;;5067234;28;20059;-51
2022/06/25 00:36:10;;;;;;;2.08;0.40;;;26.40;90.90;;;;;;5067051;28;20029;-57
2022/06/25 00:38:37;;;;;;;2.50;0.47;;;26.40;90.80;;;;;;5067080;28;20021;-55
2022/06/25 00:41:04;;;;;;;5.07;0.60;;;26.40;90.80;;;;;;5066797;28;20031;-53
2022/06/25 00:43:31;;;;;;;4.72;0.52;;;26.40;91.00;;;;;;5067283;28;20096;-54
2022/06/25 00:45:58;;;;;;;1.60;0.50;;;26.30;90.90;;;;;;5067086;28;20025;-55
2022/06/25 00:48:24;;;;;;;5.13;0.60;;;26.30;90.90;;;;;;5066982;28;20017;-51
2022/06/25 00:50:56;;;;;;;3.35;0.43;;;26.30;91.10;;;;;;5066870;28;20247;-52
2022/06/25 00:53:24;;;;;;;10.93;5.03;;;26.20;91.10;;;;;;5066163;28;20090;-49
2022/06/25 00:55:52;;;;;;;9.27;5.45;;;26.20;91.40;;;;;;5066473;28;20017;-51
2022/06/25 00:58:22;;;;;;;6.30;1.77;;;26.10;91.30;;;;;;5067065;28;20091;-52
2022/06/25 01:00:49;;;;;;;5.60;2.33;;;26.10;91.20;;;;;;5066633;28;20083;-52
2022/06/25 01:03:16;;;;;;;4.72;1.70;;;26.00;91.30;;;;;;5066739;28;20039;-53
2022/06/25 01:05:43;;;;;;;4.70;1.85;;;26.10;91.40;;;;;;5066348;28;20160;-47
2022/06/25 01:08:09;;;;;;;3.40;1.30;;;26.00;91.40;;;;;;5066387;28;20049;-57
2022/06/25 01:10:37;;;;;;;6.40;1.20;;;26.00;91.80;;;;;;5066017;28;20096;-51
2022/06/25 01:13:03;;;;;;;6.28;0.98;;;25.90;91.70;;;;;;5066838;28;20328;-49
2022/06/25 01:15:32;;;;;;;4.85;1.30;;;25.80;91.80;;;;;;5066136;28;20088;-61
2022/06/25 01:17:58;;;;;;;3.95;1.20;;;25.90;91.90;;;;;;5065346;28;20079;-51
2022/06/25 01:20:25;;;;;;;2.72;1.15;;;25.90;91.90;;;;;;5065608;28;20297;-53
2022/06/25 01:22:53;;;;;;;6.22;1.50;;;25.90;91.90;;;;;;5066209;28;20025;-47
2022/06/25 01:25:20;;;;;;;7.35;2.80;;;25.90;92.10;;;;;;5065228;28;20106;-56
2022/06/25 01:27:47;;;;;;;5.65;2.03;;;25.90;92.30;;;;;;5066375;28;20036;-55
2022/06/25 01:30:15;;;;;;;4.63;1.90;;;25.90;92.20;;;;;;5065548;28;20016;-55
2022/06/25 01:32:41;;;;;;;13.80;9.82;;;25.90;92.30;;;;;;5065516;28;20025;-56
2022/06/25 01:35:09;;;;;;;9.57;6.47;;;25.90;92.40;;;;;;5065968;28;20083;-52
2022/06/25 01:37:38;;;;;;;11.13;7.13;;;25.90;92.30;;;;;;5065642;28;20021;-57
2022/06/25 01:40:05;;;;;;;12.43;7.03;;;25.90;92.40;;;;;;5060981;28;20032;-52
2022/06/25 01:45:17;;;;;;;11.38;7.70;;;25.90;92.50;;;;;;5065099;28;20043;-54
2022/06/25 01:47:44;;;;;;;7.70;4.88;;;25.90;92.50;;;;;;5065822;28;20040;-53
2022/06/25 01:50:11;;;;;;;9.30;3.00;;;25.90;92.60;;;;;;5064996;28;20092;-53
2022/06/25 01:52:38;;;;;;;6.72;2.47;;;25.80;92.60;;;;;;5065579;28;20024;-56
2022/06/25 01:55:05;;;;;;;5.88;2.60;;;25.80;92.60;;;;;;5065382;28;20024;-56
2022/06/25 01:57:32;;;;;;;7.97;3.20;;;25.80;92.80;;;;;;5058113;28;20036;-53
2022/06/25 01:59:59;;;;;;;8.70;3.92;;;25.80;92.80;;;;;;5070435;28;20045;-53
2022/06/25 02:02:26;;;;;;;7.38;5.00;;;25.80;92.80;;;;;;5048056;28;20320;-52
2022/06/25 02:04:52;;;;;;;8.77;4.97;;;25.80;92.80;;;;;;5054293;28;20025;-54
2022/06/25 02:07:19;;;;;;;10.48;4.50;;;25.80;92.70;;;;;;5045211;28;20063;-51
2022/06/25 02:09:45;;;;;;;6.97;3.83;;;25.80;92.80;;;;;;5051677;28;20028;-54
2022/06/25 02:12:12;;;;;;;9.82;3.78;;;25.80;92.80;;;;;;5064846;28;20025;-53
2022/06/25 02:14:39;;;;;;;8.25;3.08;;;25.80;92.80;;;;;;5064792;28;20305;-53
2022/06/25 02:17:06;;;;;;;8.75;3.72;;;25.80;92.90;;;;;;5065235;28;20081;-61
2022/06/25 02:19:32;;;;;;;8.15;3.60;;;25.80;92.80;;;;;;5065244;28;20123;-53
2022/06/25 02:21:59;;;;;;;9.50;3.30;;;25.80;92.80;;;;;;5065084;28;20013;-55
2022/06/25 02:24:25;;;;;;;8.07;2.78;;;25.70;92.70;;;;;;5064751;28;20078;-55
2022/06/25 02:26:52;;;;;;;10.40;2.47;;;25.70;92.70;;;;;;5063266;28;20032;-54
2022/06/25 02:29:18;;;;;;;4.20;2.00;;;25.70;92.60;;;;;;5064918;28;20025;-54
2022/06/25 02:31:45;;;;;;;5.53;1.92;;;25.70;92.60;;;;;;5064954;28;20059;-54
2022/06/25 02:34:11;;;;;;;4.97;1.60;;;25.70;92.60;;;;;;5065387;28;20029;-55
2022/06/25 02:36:38;;;;;;;5.95;1.60;;;25.70;92.50;;;;;;5064858;28;20024;-54
2022/06/25 02:39:04;;;;;;;6.88;1.20;;;25.70;92.50;;;;;;5064804;28;20025;-55
2022/06/25 02:41:31;;;;;;;3.42;0.98;;;25.70;92.50;;;;;;5063824;28;20017;-54
2022/06/25 02:43:57;;;;;;;4.15;1.15;;;25.70;92.50;;;;;;5064963;28;20025;-56
2022/06/25 02:46:24;;;;;;;3.55;0.75;;;25.70;92.50;;;;;;5064305;28;20021;-54
2022/06/25 02:48:51;;;;;;;3.85;0.85;;;25.60;92.40;;;;;;5064992;28;20028;-54
2022/06/25 02:51:17;;;;;;;7.82;1.02;;;25.70;92.40;;;;;;5064408;28;20064;-58
2022/06/25 02:53:44;;;;;;;6.78;0.90;;;25.70;92.40;;;;;;5064415;28;20052;-55
2022/06/25 02:58:55;;;;;;;4.53;0.68;;;25.70;92.40;;;;;;5064720;28;20028;-55
2022/06/25 03:01:26;;;;;;;5.90;0.73;;;25.70;92.40;;;;;;5063832;28;20056;-55
2022/06/25 03:03:54;;;;;;;6.47;0.77;;;25.70;92.50;;;;;;5062234;28;20029;-57
2022/06/25 03:06:21;;;;;;;7.68;0.90;;;25.60;92.30;;;;;;5064242;28;20024;-55
2022/06/25 03:08:49;;;;;;;7.35;0.90;;;25.60;92.40;;;;;;5064430;28;20066;-54
2022/06/25 03:11:15;;;;;;;4.00;0.60;;;25.60;92.30;;;;;;5064337;28;20017;-54
2022/06/25 03:13:42;;;;;;;8.05;0.80;;;25.60;92.30;;;;;;5064405;28;20039;-53
2022/06/25 03:16:09;;;;;;;7.05;0.75;;;25.60;92.30;;;;;;5063955;28;20025;-58
2022/06/25 03:18:37;;;;;;;3.22;0.50;;;25.60;92.20;;;;;;5063611;28;20100;-53
2022/06/25 03:21:04;;;;;;;5.75;0.60;;;25.60;92.30;;;;;;5063523;28;20039;-54
2022/06/25 03:23:31;;;;;;;5.30;0.80;;;25.60;92.30;;;;;;5063601;28;20382;-55
2022/06/25 03:25:58;;;;;;;6.70;0.95;;;25.50;92.30;;;;;;5063751;28;20021;-51
2022/06/25 03:28:24;;;;;;;2.67;0.70;;;25.60;92.20;;;;;;5064211;28;20036;-56
2022/06/25 03:30:51;;;;;;;5.45;0.85;;;25.60;92.30;;;;;;5063918;28;20025;-54
2022/06/25 03:33:17;;;;;;;3.97;0.85;;;25.60;92.30;;;;;;5063863;28;20239;-53
2022/06/25 03:35:44;;;;;;;5.15;0.73;;;25.60;92.30;;;;;;5063784;28;20017;-55
2022/06/25 03:38:11;;;;;;;4.22;0.63;;;25.50;92.40;;;;;;5063848;28;20361;-52
2022/06/25 03:40:37;;;;;;;5.63;0.70;;;25.50;92.30;;;;;;5063475;28;20050;-51
2022/06/25 03:43:04;;;;;;;6.78;0.70;;;25.50;92.40;;;;;;5063446;28;20048;-53
2022/06/25 03:45:30;;;;;;;5.30;0.70;;;25.50;92.50;;;;;;5063338;28;20352;-53
2022/06/25 03:47:57;;;;;;;5.65;0.82;;;25.50;92.60;;;;;;5063409;28;20052;-58
2022/06/25 03:50:23;;;;;;;7.03;1.05;;;25.50;92.60;;;;;;5063383;28;20043;-51
2022/06/25 03:52:51;;;;;;;7.32;1.15;;;25.50;92.60;;;;;;5063010;28;20037;-54
2022/06/25 03:55:18;;;;;;;6.82;0.90;;;25.50;92.70;;;;;;5063459;28;20021;-49
2022/06/25 03:57:45;;;;;;;5.35;1.08;;;25.50;92.70;;;;;;5063538;28;20029;-56
2022/06/25 04:00:12;;;;;;;13.57;1.27;;;25.50;92.80;;;;;;5063515;28;20266;-53
2022/06/25 04:02:39;;;;;;;7.03;1.00;;;25.50;92.90;;;;;;5063874;28;20029;-54
2022/06/25 04:05:06;;;;;;;5.82;0.90;;;25.50;92.90;;;;;;5063529;28;20021;-53
2022/06/25 04:07:32;;;;;;;5.35;0.82;;;25.40;92.90;;;;;;5063056;28;20063;-54
2022/06/25 04:09:59;;;;;;;9.25;1.10;;;25.40;92.90;;;;;;5063607;28;20034;-52
2022/06/25 04:12:26;;;;;;;5.75;0.90;;;25.40;93.00;;;;;;5063610;28;20029;-54
2022/06/25 04:14:52;;;;;;;5.88;1.02;;;25.40;93.10;;;;;;5063361;28;20016;-52
2022/06/25 04:17:19;;;;;;;8.60;1.05;;;25.40;93.10;;;;;;5063481;28;20074;-53
2022/06/25 04:19:45;;;;;;;4.50;1.15;;;25.40;93.10;;;;;;5063440;28;20021;-54
2022/06/25 04:22:12;;;;;;;5.68;1.25;;;25.40;93.10;;;;;;5063174;28;20240;-53
2022/06/25 04:24:40;;;;;;;6.82;1.05;;;25.40;93.20;;;;;;5062592;28;20021;-55
2022/06/25 04:27:07;;;;;;;8.38;1.20;;;25.40;93.20;;;;;;5062261;28;20059;-54
2022/06/25 04:29:53;;;;;;;6.10;1.38;;;25.40;93.20;;;;;;5063190;28;20036;-53
2022/06/25 04:32:20;;;;;;;10.95;1.50;;;25.40;93.30;;;;;;5063281;28;20264;-53
2022/06/25 04:34:46;;;;;;;7.28;1.20;;;25.40;93.20;;;;;;5063012;28;20021;-53
2022/06/25 04:37:13;;;;;;;9.38;1.20;;;25.30;93.30;;;;;;5062990;28;20021;-55
2022/06/25 04:39:39;;;;;;;8.98;0.93;;;25.30;93.30;;;;;;5062800;28;20324;-55
2022/06/25 04:42:06;;;;;;;9.00;1.38;;;25.30;93.30;;;;;;5063024;28;20084;-53
2022/06/25 04:44:33;;;;;;;8.73;1.20;;;25.30;93.40;;;;;;5063518;28;20025;-53
2022/06/25 04:46:59;;;;;;;7.22;1.15;;;25.30;93.40;;;;;;5063023;28;20213;-53
2022/06/25 04:49:26;;;;;;;9.52;1.35;;;25.30;93.30;;;;;;5062903;28;20221;-53
2022/06/25 04:51:52;;;;;;;6.68;0.77;;;25.30;93.30;;;;;;5062707;28;20017;-52
2022/06/25 04:54:19;;;;;;;6.50;0.85;;;25.30;93.30;;;;;;5047699;28;20055;-52
2022/06/25 04:56:45;;;;;;;8.88;0.95;;;25.30;93.30;;;;;;5062555;28;20013;-54
2022/06/25 04:59:12;;;;;;;9.23;1.13;;;25.20;93.30;;;;;;5063492;28;20051;-54
2022/06/25 05:01:39;;;;;;;7.28;1.00;;;25.20;93.30;;;;;;5057849;28;20341;-56
2022/06/25 05:04:05;;;;;;;8.52;1.00;;;25.30;93.20;;;;;;5043823;28;20037;-52
2022/06/25 05:06:32;;;;;;;6.30;0.90;;;25.20;93.20;;;;;;5046882;28;20071;-51
2022/06/25 05:08:58;;;;;;;9.88;1.00;;;25.20;93.20;;;;;;5047033;28;20297;-54
2022/06/25 05:11:25;;;;;;;5.40;0.90;;;25.20;93.40;;;;;;5046103;28;20034;-53
2022/06/25 05:13:51;;;;;;;4.85;0.70;;;25.20;93.20;;;;;;5046765;28;20168;-56
2022/06/25 05:16:18;;;;;;;7.38;0.88;;;25.20;93.20;;;;;;5046382;28;20048;-57
2022/06/25 05:18:46;;;;;;;5.10;0.70;;;25.20;93.20;;;;;;5046735;28;20044;-61
2022/06/25 05:21:12;;;;;;;10.55;0.90;;;25.20;93.20;;;;;;5046144;28;20021;-55
2022/06/25 05:23:39;;;;;;;3.95;0.70;;;25.10;93.20;;;;;;5046284;28;20021;-50
2022/06/25 05:26:06;;;;;;;7.70;0.75;;;25.10;93.20;;;;;;5045940;28;20029;-52
2022/06/25 05:28:32;;;;;;;6.93;0.70;;;25.10;93.20;;;;;;5046462;28;20026;-52
2022/06/25 05:30:59;;;;;;;6.88;0.60;;;25.10;93.20;;;;;;5046274;28;20018;-55
2022/06/25 05:33:25;;;;;;;6.57;1.05;;;25.10;93.30;;;;;;5046466;28;20036;-57
2022/06/25 05:35:52;;;;;;;6.05;0.88;;;25.10;93.30;;;;;;5046038;28;20051;-59
2022/06/25 05:38:18;;;;;;;5.50;0.65;;;25.10;93.30;;;;;;5046309;28;20052;-56
2022/06/25 05:40:45;;;;;;;8.07;0.80;;;25.10;93.30;;;;;;5045768;28;20076;-56
2022/06/25 05:43:12;;;;;;;7.30;0.70;;;25.00;93.30;;;;;;5046062;28;20030;-53
2022/06/25 05:45:38;;;;;;;4.28;0.70;;;25.00;93.30;;;;;;5045981;28;20013;-55
2022/06/25 05:48:05;;;;;;;7.28;0.75;;;25.00;93.30;;;;;;5046270;28;20206;-52
2022/06/25 05:50:32;;;;;;;10.48;1.15;;;25.00;93.40;;;;;;5045786;28;20318;-53
2022/06/25 05:52:58;;;;;;;8.80;0.85;;;25.00;93.40;;;;;;5064948;28;20020;-55
2022/06/25 05:55:25;;;;;;;5.78;0.60;;;25.00;93.30;;;;;;5065470;28;20021;-52
2022/06/25 05:57:52;;;;;;;3.63;0.68;;;25.00;93.30;;;;;;5065844;28;20028;-51
2022/06/25 06:00:19;;;;;;;5.85;0.90;;;24.90;93.40;;;;;;5065660;28;20076;-58
2022/06/25 06:02:46;;;;;;;6.57;0.60;;;25.00;93.40;;;;;;5065871;28;20029;-55
2022/06/25 06:05:12;;;;;;;8.65;1.15;;;25.00;93.40;;;;;;5065773;28;20312;-54
2022/06/25 06:07:39;;;;;;;10.07;0.85;;;24.90;93.30;;;;;;5065677;28;20092;-56
2022/06/25 06:10:06;;;;;;;6.80;0.73;;;24.90;93.30;;;;;;5065311;28;20368;-52
2022/06/25 06:12:33;;;;;;;9.70;0.60;;;24.90;93.40;;;;;;5065449;28;20033;-55
2022/06/25 06:14:59;;;;;;;6.40;0.93;;;24.90;93.40;;;;;;5065300;28;20056;-56
2022/06/25 06:17:26;;;;;;;6.20;0.77;;;24.90;93.40;;;;;;5065408;28;20028;-54
2022/06/25 06:19:52;;;;;;;4.40;0.75;;;24.90;93.40;;;;;;5065325;28;20016;-51
2022/06/25 06:22:19;;;;;;;9.57;0.70;;;24.90;93.40;;;;;;5065319;28;20201;-55
2022/06/25 06:24:46;;;;;;;9.70;0.73;;;24.90;93.60;;;;;;5065007;28;20370;-58
2022/06/25 06:27:12;;;;;;;6.28;0.85;;;24.90;93.40;;;;;;5065176;28;20032;-51
2022/06/25 06:29:39;;;;;;;6.18;0.65;;;24.90;93.40;;;;;;5065196;28;20043;-49
2022/06/25 06:32:06;;;;;;;6.07;0.60;;;24.80;93.40;;;;;;5065149;28;20067;-49
2022/06/25 06:34:32;;;;;;;7.78;0.60;;;24.80;93.40;;;;;;5065072;28;20044;-49
2022/06/25 06:36:59;;;;;;;10.00;0.80;;;24.80;93.40;;;;;;5064921;28;20032;-52
2022/06/25 06:39:25;;;;;;;8.50;0.90;;;24.80;93.60;;;;;;5064618;28;20036;-55
2022/06/25 06:41:53;;;;;;;5.93;0.90;;;24.80;93.30;;;;;;5064941;28;20123;-51
2022/06/25 06:44:19;;;;;;;4.88;0.63;;;24.80;93.40;;;;;;5065347;28;20021;-49
2022/06/25 06:46:47;;;;;;;8.95;1.08;;;24.80;93.30;;;;;;5064998;28;20025;-54
2022/06/25 06:49:13;;;;;;;7.75;0.70;;;24.80;93.30;;;;;;5065107;28;20075;-49
2022/06/25 06:51:40;;;;;;;12.35;0.70;;;24.80;93.30;;;;;;5064683;28;20344;-48
2022/06/25 06:54:06;;;;;;;4.40;0.65;;;24.80;93.30;;;;;;5064857;28;20036;-53
2022/06/25 06:56:33;;;;;;;5.95;0.90;;;24.80;93.60;;;;;;5064757;28;20084;-52
2022/06/25 06:58:59;;;;;;;8.80;0.57;;;24.70;93.30;;;;;;5064900;28;20025;-49
2022/06/25 07:01:26;;;;;;;8.77;0.77;;;24.70;93.30;;;;;;5064655;28;20056;-54
2022/06/25 07:03:53;;;;;;;7.60;0.80;;;24.70;93.30;;;;;;5064969;28;20086;-53
2022/06/25 07:06:20;;;;;;;4.97;0.57;;;24.70;93.20;;;;;;5064393;28;20044;-51
2022/06/25 07:08:46;;;;;;;11.07;0.80;;;24.70;93.30;;;;;;5064002;28;20025;-56
2022/06/25 07:11:31;;;;;;;10.45;1.20;;;24.70;93.30;;;;;;5064755;28;20013;-54
2022/06/25 07:14:00;;;;;;;8.00;0.70;;;24.70;93.30;;;;;;5064676;28;20041;-51
2022/06/25 07:16:28;;;;;;;7.28;0.80;;;24.60;93.20;;;;;;5064666;28;20363;-54
2022/06/25 07:18:57;;;;;;;5.57;0.82;;;24.60;93.20;;;;;;5064552;28;20105;-55
2022/06/25 07:21:24;;;;;;;5.50;0.85;;;24.60;93.20;;;;;;5064253;28;20025;-56
2022/06/25 07:23:50;;;;;;;5.65;0.65;;;24.60;93.20;;;;;;5064233;28;20029;-53
2022/06/25 07:26:18;;;;;;;5.25;0.57;;;24.60;93.20;;;;;;5064060;28;20088;-54
2022/06/25 07:28:45;;;;;;;8.07;0.77;;;24.60;93.20;;;;;;5063941;28;20037;-54
2022/06/25 07:31:11;;;;;;;6.80;0.63;;;24.60;93.10;;;;;;5064079;28;20024;-51
2022/06/25 07:33:38;;;;;;;10.30;0.65;;;24.60;93.10;;;;;;5064201;28;20320;-54
2022/06/25 07:36:06;;;;;;;6.15;1.02;;;24.60;93.00;;;;;;5064175;28;20042;-53
2022/06/25 07:38:34;;;;;;;9.10;0.45;;;24.60;93.00;;;;;;5063857;28;20033;-51
2022/06/25 07:41:01;;;;;;;4.72;0.47;;;24.60;93.00;;;;;;5063816;28;20067;-54
2022/06/25 07:43:27;;;;;;;9.38;0.73;;;24.60;93.00;;;;;;5064240;28;20032;-53
2022/06/25 07:45:55;;;;;;;5.88;0.70;;;24.60;93.00;;;;;;5063840;28;20040;-54
2022/06/25 07:48:22;;;;;;;5.10;0.47;;;24.60;92.90;;;;;;5063938;28;20034;-56
2022/06/25 07:53:34;;;;;;;9.55;0.70;;;24.50;92.90;;;;;;5063144;28;20035;-57
2022/06/25 07:56:00;;;;;;;5.82;0.60;;;24.50;92.90;;;;;;5063766;28;20013;-55
2022/06/25 07:58:28;;;;;;;5.45;0.57;;;24.50;92.80;;;;;;5064021;28;20403;-54
2022/06/25 08:00:55;;;;;;;4.03;0.50;;;24.50;92.70;;;;;;5063484;28;20275;-51
2022/06/25 08:03:21;;;;;;;10.57;0.60;;;24.50;92.80;;;;;;5064066;28;20236;-53
2022/06/25 08:05:48;;;;;;;7.53;0.68;;;24.50;92.90;;;;;;5063693;28;20083;-50
2022/06/25 08:08:14;;;;;;;4.43;0.60;;;24.50;92.80;;;;;;5063330;28;20032;-54
2022/06/25 08:10:41;;;;;;;3.25;0.50;;;24.50;92.80;;;;;;5063636;28;20025;-54
2022/06/25 08:13:08;;;;;;;7.28;0.50;;;24.50;92.80;;;;;;5063689;28;20084;-55
2022/06/25 08:15:35;;;;;;;5.45;0.60;;;24.50;92.80;;;;;;5063852;28;20298;-55
2022/06/25 08:18:02;;;;;;;6.50;0.60;;;24.50;92.90;;;;;;5063792;28;20236;-55
2022/06/25 08:20:29;;;;;;;5.05;0.50;;;24.50;92.90;;;;;;5063525;28;20013;-55
2022/06/25 08:22:55;;;;;;;7.80;0.60;;;24.50;92.90;;;;;;5063215;28;20033;-51
2022/06/25 08:25:22;;;;;;;5.07;0.80;;;24.50;92.90;;;;;;5063488;28;20028;-54
2022/06/25 08:27:53;;;;;;;7.78;0.63;;;24.50;92.90;;;;;;5063465;28;20171;-58
2022/06/25 08:30:21;;;;;;;5.97;0.60;;;24.50;92.90;;;;;;5063422;28;20333;-51
2022/06/25 08:32:48;;;;;;;4.03;0.50;;;24.40;93.00;;;;;;5063480;28;20039;-50
2022/06/25 08:35:15;;;;;;;5.25;0.60;;;24.40;93.20;;;;;;5063413;28;20331;-47
2022/06/25 08:37:50;;;;;;;6.15;0.60;;;24.40;92.90;;;;;;5063046;28;20060;-56
2022/06/25 08:40:18;;;;;;;7.97;0.52;;;24.40;93.00;;;;;;5065415;28;20013;-49
2022/06/25 08:42:47;;;;;;;6.75;0.90;;;24.40;93.10;;;;;;5067444;28;20029;-54
2022/06/25 08:45:15;;;;;;;11.18;0.77;;;24.40;93.00;;;;;;5067020;28;20029;-54
2022/06/25 08:47:51;;;;;;;6.53;0.60;;;24.40;93.10;;;;;;5067224;28;20060;-56
2022/06/25 08:50:21;;;;;;;11.85;0.93;;;24.30;93.10;;;;;;5067028;28;20024;-53
2022/06/25 08:52:49;;;;;;;8.02;0.82;;;24.30;93.10;;;;;;5066787;28;20029;-53
2022/06/25 08:55:38;;;;;;;7.18;0.60;;;24.30;93.20;;;;;;5067229;28;20047;-53
2022/06/25 08:58:06;;;;;;;9.23;0.90;;;24.30;93.20;;;;;;5067163;28;20020;-55
2022/06/25 09:00:35;;;;;;;7.03;0.63;;;24.30;93.20;;;;;;5066785;28;20218;-53
2022/06/25 09:03:03;;;;;;;7.85;0.80;;;24.40;93.20;;;;;;5066820;28;20021;-52
2022/06/25 09:05:35;;;;;;;11.70;1.10;;;24.30;93.20;;;;;;5066908;28;20097;-50
2022/06/25 09:08:07;;;;;;;9.40;0.82;;;24.30;93.10;;;;;;5066670;28;20071;-47
2022/06/25 09:10:35;;;;;;;9.07;0.90;;;24.30;93.10;;;;;;5066904;28;20032;-52
2022/06/25 09:13:04;;;;;;;11.73;1.25;;;24.30;93.10;;;;;;5067053;28;20039;-53
2022/06/25 09:15:37;;;;;;;8.60;1.00;;;24.30;93.10;;;;;;5066706;28;20019;-52
2022/06/25 09:18:13;;;;;;;8.25;1.02;;;24.30;93.10;;;;;;5066742;28;20044;-52
2022/06/25 09:21:05;;;;;;;12.82;1.15;;;24.30;93.20;;;;;;5066556;28;20027;-52
2022/06/25 09:23:55;;;;;;;12.90;1.08;;;24.30;93.30;;;;;;5066441;28;20091;-55
2022/06/25 09:26:21;;;;;;;5.72;0.90;;;24.30;93.50;;;;;;5066293;28;20025;-52
2022/06/25 09:28:48;;;;;;;6.95;1.10;;;24.30;93.30;;;;;;5066788;28;20309;-49
2022/06/25 09:31:37;;;;;;;5.47;0.80;;;24.30;93.30;;;;;;5066349;28;20020;-50
2022/06/25 09:34:05;;;;;;;9.73;1.17;;;24.30;93.30;;;;;;5066581;28;20037;-54
2022/06/25 09:36:32;;;;;;;4.60;0.80;;;24.30;93.40;;;;;;5066071;28;20205;-54
2022/06/25 09:38:58;;;;;;;10.75;1.35;;;24.30;93.40;;;;;;5066032;28;20025;-53
2022/06/25 09:41:25;;;;;;;6.03;1.17;;;24.30;93.40;;;;;;5066114;28;20216;-50
2022/06/25 09:43:52;;;;;;;8.50;1.48;;;24.30;93.50;;;;;;5066543;28;20305;-54
2022/06/25 09:46:19;;;;;;;10.27;1.10;;;24.30;93.50;;;;;;5065962;28;20024;-53
2022/06/25 09:48:45;;;;;;;10.10;1.02;;;24.30;93.50;;;;;;5065005;28;20035;-52
2022/06/25 09:51:20;;;;;;;6.85;0.80;;;24.30;93.50;;;;;;5065332;28;20028;-51
2022/06/25 09:53:52;;;;;;;12.38;1.00;;;24.30;93.50;;;;;;5065982;28;20033;-52
2022/06/25 09:56:22;;;;;;;9.70;1.00;;;24.30;93.50;;;;;;5066029;28;20023;-47
2022/06/25 09:58:49;;;;;;;8.68;1.13;;;24.30;93.60;;;;;;5066077;28;20025;-53
2022/06/25 10:01:19;;;;;;;6.28;0.80;;;24.30;93.50;;;;;;5065384;28;20036;-55
2022/06/25 10:03:47;;;;;;;12.07;1.05;;;24.30;93.50;;;;;;5066043;28;20029;-50
2022/06/25 10:06:15;;;;;;;7.88;0.70;;;24.30;93.60;;;;;;5065273;28;20357;-50
2022/06/25 10:09:05;;;;;;;10.73;1.10;;;24.30;93.60;;;;;;5065867;28;20198;-50
2022/06/25 10:11:34;;;;;;;7.65;0.90;;;24.30;93.60;;;;;;5065471;28;20032;-51
2022/06/25 10:14:02;;;;;;;8.45;1.10;;;24.30;93.60;;;;;;5065920;28;20148;-49
2022/06/25 10:16:31;;;;;;;17.95;1.40;;;24.30;93.60;;;;;;5065924;28;20021;-55
2022/06/25 10:19:00;;;;;;;8.95;1.40;;;24.30;93.60;;;;;;5065734;28;20025;-57
2022/06/25 10:21:26;;;;;;;9.98;1.20;;;24.30;93.60;;;;;;5065038;28;20017;-50
2022/06/25 10:24:00;;;;;;;9.50;1.25;;;24.30;93.60;;;;;;5065283;28;20071;-53
2022/06/25 10:26:27;;;;;;;4.97;1.00;;;24.30;93.60;;;;;;5065321;28;20092;-50
2022/06/25 10:28:53;;;;;;;124.88;8.85;;;24.30;93.60;;;;;;5065509;28;20059;-56
2022/06/25 10:31:20;;;;;;;52.45;3.58;;;24.30;93.60;;;;;;5064893;28;20080;-51
2022/06/25 10:34:02;;;;;;;28.58;1.92;;;24.30;93.70;;;;;;5065243;28;20063;-49
2022/06/25 10:36:46;;;;;;;16.63;1.90;;;24.30;93.70;;;;;;5064563;28;20044;-50
2022/06/25 10:39:27;;;;;;;11.68;1.50;;;24.30;93.70;;;;;;5065334;28;20070;-52
2022/06/25 10:45:17;;;;;;;;;;;24.30;93.80;;;;;;5065234;28;20036;-54
2022/06/25 10:47:57;;;;;;;14.48;1.33;;;24.30;93.80;;;;;;5065006;28;19915;-53
2022/06/25 10:50:25;;;;;;;10.35;1.10;;;24.30;93.80;;;;;;5064693;28;20096;-53
2022/06/25 10:53:03;;;;;;;14.15;1.30;;;24.30;93.80;;;;;;5064386;28;20091;-51
2022/06/25 10:55:59;;;;;;;10.57;1.27;;;24.30;93.80;;;;;;5064682;28;20029;-53
2022/06/25 10:58:28;;;;;;;8.05;1.00;;;24.30;93.90;;;;;;5064694;28;20032;-50
2022/06/25 11:01:01;;;;;;;12.52;1.40;;;24.30;93.90;;;;;;5064055;28;20041;-50
2022/06/25 11:03:30;;;;;;;9.30;1.00;;;24.30;94.00;;;;;;5063704;28;20396;-53
2022/06/25 11:06:01;;;;;;;;;;;24.30;94.00;;;;;;5064353;28;20304;-55
2022/06/25 11:08:34;;;;;;;6.00;1.00;;;24.30;94.00;;;;;;5063975;28;19905;-50
2022/06/25 11:11:01;;;;;;;10.30;1.20;;;24.30;94.00;;;;;;5064275;28;20020;-52
2022/06/25 11:13:27;;;;;;;11.68;1.52;;;24.20;94.10;;;;;;5064317;28;20036;-54
2022/06/25 11:15:54;;;;;;;9.25;1.20;;;24.30;94.10;;;;;;5064194;28;20029;-53
2022/06/25 11:18:20;;;;;;;9.30;1.13;;;24.30;94.10;;;;;;5064325;28;20334;-53
2022/06/25 11:20:47;;;;;;;13.30;1.45;;;24.30;94.10;;;;;;5063718;28;20325;-58
2022/06/25 11:23:16;;;;;;;8.50;1.33;;;24.30;94.20;;;;;;5064139;28;20080;-54
2022/06/25 11:28:48;;;;;;;8.35;1.33;;;24.30;94.30;;;;;;5064296;28;20253;-56
2022/06/25 11:31:24;;;;;;;9.48;1.10;;;24.30;94.30;;;;;;5063935;28;20024;-54
2022/06/25 11:33:53;;;;;;;9.70;1.38;;;24.30;94.30;;;;;;5064064;28;20028;-51
2022/06/25 11:36:20;;;;;;;12.52;1.20;;;24.30;94.30;;;;;;5063269;28;20017;-54
2022/06/25 11:38:52;;;;;;;9.23;1.85;;;24.30;94.30;;;;;;5063862;28;20326;-54
2022/06/25 11:41:32;;;;;;;12.02;1.35;;;24.30;94.30;;;;;;5063788;28;20356;-54
2022/06/25 11:44:06;;;;;;;11.55;1.70;;;24.30;94.30;;;;;;5063637;28;20064;-52
2022/06/25 11:46:36;;;;;;;9.88;1.20;;;24.30;94.40;;;;;;5063754;28;20032;-53
2022/06/25 11:49:06;;;;;;;11.70;1.42;;;24.40;94.40;;;;;;5064072;28;20065;-53
2022/06/25 11:51:32;;;;;;;9.32;1.88;;;24.30;94.40;;;;;;5063053;28;20256;-53
2022/06/25 11:54:05;;;;;;;8.77;1.63;;;24.40;94.40;;;;;;5063979;28;20320;-53
2022/06/25 11:56:32;;;;;;;12.68;1.92;;;24.40;94.40;;;;;;5063500;28;20025;-48
2022/06/25 11:58:58;;;;;;;10.25;2.50;;;24.40;94.50;;;;;;5063659;28;20021;-52
2022/06/25 12:01:29;;;;;;;9.00;2.05;;;24.40;94.40;;;;;;5063339;28;20069;-48
2022/06/25 12:03:57;;;;;;;11.48;3.90;;;24.40;94.50;;;;;;5063918;28;20305;-53
2022/06/25 12:06:24;;;;;;;9.60;3.88;;;24.40;94.60;;;;;;5063106;28;20333;-57
2022/06/25 12:08:51;;;;;;;14.15;4.90;;;24.40;94.50;;;;;;5063618;28;20016;-53
2022/06/25 12:11:19;;;;;;;7.63;3.65;;;24.40;94.50;;;;;;5063367;28;20052;-56
2022/06/25 12:13:46;;;;;;;12.90;2.92;;;24.50;94.60;;;;;;5064830;28;20138;-49
2022/06/25 12:16:12;;;;;;;6.78;2.60;;;24.50;94.60;;;;;;5067590;28;20024;-51
2022/06/25 12:18:44;;;;;;;8.23;2.00;;;24.50;94.60;;;;;;5068107;28;20017;-54
2022/06/25 12:21:20;;;;;;;9.63;2.58;;;24.50;94.70;;;;;;5067308;28;20021;-52
2022/06/25 12:23:54;;;;;;;9.98;2.30;;;24.50;94.80;;;;;;5067900;28;20036;-49
2022/06/25 12:26:32;;;;;;;7.10;1.95;;;24.50;94.80;;;;;;5067428;28;20063;-53
2022/06/25 12:29:20;;;;;;;7.72;1.85;;;24.50;94.90;;;;;;5067968;28;20024;-53
2022/06/25 12:31:59;;;;;;;10.40;2.45;;;24.50;95.00;;;;;;5067487;28;20029;-54
2022/06/25 12:34:27;;;;;;;10.82;2.60;;;24.50;95.00;;;;;;5067338;28;20037;-47
2022/06/25 12:36:55;;;;;;;11.02;2.60;;;24.50;95.10;;;;;;5066817;28;20013;-53
2022/06/25 12:39:29;;;;;;;6.50;1.90;;;24.60;95.20;;;;;;5067506;28;20021;-49
2022/06/25 12:41:56;;;;;;;5.82;1.60;;;24.50;95.10;;;;;;5067213;28;20032;-51
2022/06/25 12:44:22;;;;;;;7.38;1.58;;;24.60;95.10;;;;;;5067767;28;20304;-51
2022/06/25 12:46:59;;;;;;;14.13;2.05;;;24.60;95.00;;;;;;5067238;28;20033;-54
2022/06/25 12:49:38;;;;;;;10.43;1.70;;;24.60;94.90;;;;;;5066900;28;20028;-51
2022/06/25 12:52:05;;;;;;;6.35;1.23;;;24.60;94.90;;;;;;5067116;28;20063;-55
2022/06/25 12:54:46;;;;;;;10.90;1.17;;;24.60;94.80;;;;;;5066885;28;20029;-54
2022/06/25 12:57:32;;;;;;;6.60;1.20;;;24.60;94.70;;;;;;5066964;28;20013;-53
2022/06/25 13:00:01;;;;;;;5.60;1.33;;;24.60;94.80;;;;;;5066707;28;20040;-54
2022/06/25 13:02:28;;;;;;;8.48;1.10;;;24.60;94.90;;;;;;5066885;28;20029;-52
2022/06/25 13:04:54;;;;;;;8.20;1.27;;;24.60;94.90;;;;;;5066720;28;20249;-50
2022/06/25 13:07:21;;;;;;;5.47;1.10;;;24.70;95.00;;;;;;5066684;28;20056;-55
2022/06/25 13:09:49;;;;;;;4.22;0.73;;;24.70;95.00;;;;;;5066638;28;20025;-49